createdAt,value
2023-05-20T00:01:24.632Z,100.00
2023-05-20T00:03:52.808Z,100.00
2023-05-20T00:06:20.937Z,100.00
2023-05-20T00:08:48.737Z,100.00
2023-05-20T00:11:16.786Z,100.00
2023-05-20T00:13:44.533Z,100.00
2023-05-20T00:16:14.198Z,100.00
2023-05-20T00:18:42.245Z,100.00
2023-05-20T00:21:12.444Z,100.00
2023-05-20T00:23:40.256Z,100.00
2023-05-20T00:26:08.286Z,100.00
2023-05-20T00:28:36.059Z,100.00
2023-05-20T00:31:04.796Z,100.00
2023-05-20T00:33:36.289Z,100.00
2023-05-20T00:36:04.197Z,100.00
2023-05-20T00:38:32.006Z,100.00
2023-05-20T00:41:00.032Z,100.00
2023-05-20T00:43:27.810Z,100.00
2023-05-20T00:45:56.517Z,100.00
2023-05-20T00:48:24.684Z,100.00
2023-05-20T00:50:53.838Z,100.00
2023-05-20T00:53:22.583Z,100.00
2023-05-20T00:55:50.611Z,100.00
2023-05-20T00:58:18.747Z,100.00
2023-05-20T01:00:46.768Z,100.00
2023-05-20T01:03:15.004Z,100.00
2023-05-20T01:05:42.996Z,100.00
2023-05-20T01:08:12.237Z,100.00
2023-05-20T01:10:43.713Z,100.00
2023-05-20T01:13:15.297Z,100.00
2023-05-20T01:15:48.338Z,100.00
2023-05-20T01:18:18.569Z,100.00
2023-05-20T01:20:48.909Z,100.00
2023-05-20T01:23:18.545Z,100.00
2023-05-20T01:25:46.314Z,100.00
2023-05-20T01:28:18.235Z,100.00
2023-05-20T01:30:53.793Z,100.00
2023-05-20T01:33:25.262Z,100.00
2023-05-20T01:35:53.856Z,100.00
2023-05-20T01:38:24.850Z,100.00
2023-05-20T01:40:53.309Z,100.00
2023-05-20T01:43:22.251Z,100.00
2023-05-20T01:45:50.043Z,100.00
2023-05-20T01:48:17.949Z,100.00
2023-05-20T01:50:45.968Z,100.00
2023-05-20T01:53:13.781Z,100.00
2023-05-20T01:55:42.918Z,100.00
2023-05-20T01:58:10.987Z,100.00
2023-05-20T02:00:39.000Z,100.00
2023-05-20T02:03:06.886Z,100.00
2023-05-20T02:05:35.202Z,100.00
2023-05-20T02:08:03.242Z,100.00
2023-05-20T02:10:31.029Z,100.00
2023-05-20T02:13:00.451Z,100.00
2023-05-20T02:15:28.270Z,100.00
2023-05-20T02:17:58.037Z,100.00
2023-05-20T02:20:26.326Z,100.00
2023-05-20T02:22:54.099Z,100.00
2023-05-20T02:25:21.864Z,100.00
2023-05-20T02:27:49.902Z,100.00
2023-05-20T02:30:19.162Z,100.00
2023-05-20T02:32:47.060Z,100.00
2023-05-20T02:35:15.248Z,100.00
2023-05-20T02:37:44.918Z,100.00
2023-05-20T02:40:13.013Z,100.00
2023-05-20T02:42:42.498Z,100.00
2023-05-20T02:45:11.065Z,100.00
2023-05-20T02:47:40.356Z,100.00
2023-05-20T02:50:09.187Z,100.00
2023-05-20T02:52:37.221Z,100.00
2023-05-20T02:55:06.323Z,100.00
2023-05-20T02:57:38.033Z,100.00
2023-05-20T03:00:08.102Z,100.00
2023-05-20T03:02:36.495Z,100.00
2023-05-20T03:05:06.186Z,100.00
2023-05-20T03:07:36.288Z,100.00
2023-05-20T03:10:05.091Z,100.00
2023-05-20T03:12:32.964Z,100.00
2023-05-20T03:15:01.137Z,100.00
2023-05-20T03:17:29.275Z,100.00
2023-05-20T03:19:57.223Z,100.00
2023-05-20T03:22:26.419Z,100.00
2023-05-20T03:24:54.439Z,100.00
2023-05-20T03:27:22.662Z,100.00
2023-05-20T03:29:51.400Z,100.00
2023-05-20T03:32:19.445Z,100.00
2023-05-20T03:34:47.520Z,100.00
2023-05-20T03:37:15.334Z,100.00
2023-05-20T03:39:44.694Z,100.00
2023-05-20T03:42:12.460Z,100.00
2023-05-20T03:44:40.357Z,100.00
2023-05-20T03:47:08.410Z,100.00
2023-05-20T03:49:36.172Z,100.00
2023-05-20T03:52:04.536Z,100.00
2023-05-20T03:54:32.589Z,100.00
2023-05-20T03:57:03.056Z,100.00
2023-05-20T03:59:31.020Z,100.00
2023-05-20T04:01:59.085Z,100.00
2023-05-20T04:04:27.142Z,100.00
2023-05-20T04:06:56.202Z,100.00
2023-05-20T04:09:24.281Z,100.00
2023-05-20T04:11:52.035Z,100.00
2023-05-20T04:14:21.162Z,100.00
2023-05-20T04:16:50.259Z,100.00
2023-05-20T04:19:19.569Z,100.00
2023-05-20T04:21:47.675Z,100.00
2023-05-20T04:24:15.727Z,100.00
2023-05-20T04:26:43.669Z,100.00
2023-05-20T04:29:11.929Z,100.00
2023-05-20T04:31:41.408Z,100.00
2023-05-20T04:34:09.239Z,100.00
2023-05-20T04:36:38.271Z,100.00
2023-05-20T04:39:06.627Z,100.00
2023-05-20T04:41:35.381Z,100.00
2023-05-20T04:44:03.910Z,100.00
2023-05-20T04:46:32.049Z,100.00
2023-05-20T04:49:01.214Z,100.00
2023-05-20T04:51:29.495Z,100.00
2023-05-20T04:53:59.014Z,100.00
2023-05-20T04:56:27.113Z,100.00
2023-05-20T04:58:56.106Z,100.00
2023-05-20T05:01:24.142Z,100.00
2023-05-20T05:03:51.968Z,100.00
2023-05-20T05:06:21.687Z,100.00
2023-05-20T05:08:49.696Z,100.00
2023-05-20T05:11:17.489Z,100.00
2023-05-20T05:13:45.632Z,100.00
2023-05-20T05:18:42.538Z,100.00
2023-05-20T05:21:10.350Z,100.00
2023-05-20T05:23:39.940Z,100.00
2023-05-20T05:26:07.717Z,100.00
2023-05-20T05:28:35.579Z,100.00
2023-05-20T05:31:03.736Z,100.00
2023-05-20T05:33:31.666Z,100.00
2023-05-20T05:36:01.140Z,100.00
2023-05-20T05:38:29.196Z,100.00
2023-05-20T05:40:58.308Z,100.00
2023-05-20T05:43:26.187Z,100.00
2023-05-20T05:45:54.274Z,100.00
2023-05-20T05:48:22.859Z,100.00
2023-05-20T05:50:50.705Z,100.00
2023-05-20T05:53:18.848Z,100.00
2023-05-20T05:55:47.386Z,100.00
2023-05-20T05:58:17.168Z,100.00
2023-05-20T06:00:45.388Z,100.00
2023-05-20T06:03:13.365Z,100.00
2023-05-20T06:05:41.268Z,100.00
2023-05-20T06:08:09.550Z,100.00
2023-05-20T06:10:37.362Z,100.00
2023-05-20T06:13:05.124Z,100.00
2023-05-20T06:15:34.839Z,100.00
2023-05-20T06:18:02.799Z,100.00
2023-05-20T06:20:30.587Z,100.00
2023-05-20T06:22:58.624Z,100.00
2023-05-20T06:25:26.507Z,100.00
2023-05-20T06:27:54.277Z,100.00
2023-05-20T06:30:22.276Z,100.00
2023-05-20T06:32:51.465Z,100.00
2023-05-20T06:35:19.303Z,100.00
2023-05-20T06:37:47.339Z,100.00
2023-05-20T06:40:15.306Z,100.00
2023-05-20T06:42:43.079Z,100.00
2023-05-20T06:45:12.085Z,100.00
2023-05-20T06:47:39.891Z,100.00
2023-05-20T06:50:09.877Z,100.00
2023-05-20T06:52:38.063Z,100.00
2023-05-20T06:55:06.693Z,100.00
2023-05-20T06:57:34.526Z,100.00
2023-05-20T07:00:02.640Z,100.00
2023-05-20T07:02:31.806Z,100.00
2023-05-20T07:04:59.827Z,100.00
2023-05-20T07:07:29.319Z,100.00
2023-05-20T07:09:58.689Z,100.00
2023-05-20T07:12:26.553Z,100.00
2023-05-20T07:14:54.677Z,100.00
2023-05-20T07:17:22.557Z,100.00
2023-05-20T07:19:50.497Z,100.00
2023-05-20T07:22:18.576Z,100.00
2023-05-20T07:24:47.924Z,100.00
2023-05-20T07:27:15.734Z,100.00
2023-05-20T07:29:43.951Z,100.00
2023-05-20T07:32:11.833Z,100.00
2023-05-20T07:34:39.653Z,100.00
2023-05-20T07:37:09.477Z,100.00
2023-05-20T07:39:37.244Z,100.00
2023-05-20T07:42:06.778Z,100.00
2023-05-20T07:44:34.803Z,100.00
2023-05-20T07:47:02.791Z,100.00
2023-05-20T07:49:31.365Z,100.00
2023-05-20T07:52:02.740Z,100.00
2023-05-20T07:54:30.900Z,100.00
2023-05-20T07:57:00.316Z,100.00
2023-05-20T07:59:29.433Z,100.00
2023-05-20T08:01:57.265Z,100.00
2023-05-20T08:06:55.207Z,100.00
2023-05-20T08:09:23.089Z,100.00
2023-05-20T08:11:51.334Z,100.00
2023-05-20T08:14:19.137Z,100.00
2023-05-20T08:16:48.337Z,100.00
2023-05-20T08:19:16.580Z,100.00
2023-05-20T08:21:44.595Z,100.00
2023-05-20T08:24:12.383Z,100.00
2023-05-20T08:26:40.407Z,100.00
2023-05-20T08:29:08.632Z,100.00
2023-05-20T08:31:36.431Z,100.00
2023-05-20T08:34:05.840Z,100.00
2023-05-20T08:36:33.618Z,100.00
2023-05-20T08:39:01.832Z,100.00
2023-05-20T08:41:30.348Z,100.00
2023-05-20T08:44:00.234Z,100.00
2023-05-20T08:46:28.374Z,100.00
2023-05-20T08:48:56.519Z,100.00
2023-05-20T08:51:28.665Z,100.00
2023-05-20T08:53:56.635Z,100.00
2023-05-20T08:56:28.187Z,100.00
2023-05-20T08:58:58.187Z,100.00
2023-05-20T09:01:26.845Z,100.00
2023-05-20T09:03:54.716Z,98.33
2023-05-20T09:06:22.758Z,97.77
2023-05-20T09:08:52.695Z,97.43
2023-05-20T09:11:21.764Z,100.00
2023-05-20T09:13:51.212Z,96.86
2023-05-20T09:16:19.183Z,97.13
2023-05-20T09:18:47.696Z,98.67
2023-05-20T09:21:16.369Z,96.00
2023-05-20T09:23:48.509Z,97.11
2023-05-20T09:26:19.175Z,95.90
2023-05-20T09:28:47.465Z,92.49
2023-05-20T09:31:15.918Z,92.42
2023-05-20T09:33:45.184Z,91.43
2023-05-20T09:36:16.619Z,90.41
2023-05-20T09:38:47.449Z,89.53
2023-05-20T09:41:16.913Z,88.53
2023-05-20T09:43:46.181Z,89.17
2023-05-20T09:46:15.085Z,86.09
2023-05-20T09:48:43.211Z,85.38
2023-05-20T09:51:13.361Z,85.01
2023-05-20T09:53:43.064Z,84.78
2023-05-20T09:56:11.459Z,83.24
2023-05-20T09:58:43.428Z,82.63
2023-05-20T10:01:11.495Z,82.89
2023-05-20T10:03:41.201Z,82.54
2023-05-20T10:06:27.355Z,81.17
2023-05-20T10:09:08.581Z,82.53
2023-05-20T10:11:44.874Z,79.07
2023-05-20T10:14:33.525Z,79.67
2023-05-20T10:17:15.019Z,78.52
2023-05-20T10:19:43.192Z,78.37
2023-05-20T10:22:12.240Z,80.77
2023-05-20T10:24:41.767Z,79.71
2023-05-20T10:27:11.925Z,79.23
2023-05-20T10:29:45.424Z,79.73
2023-05-20T10:32:24.671Z,80.49
2023-05-20T10:34:52.966Z,76.61
2023-05-20T10:37:29.194Z,76.39
2023-05-20T10:40:11.166Z,75.73
2023-05-20T10:42:39.488Z,76.96
2023-05-20T10:45:10.012Z,74.73
2023-05-20T10:47:38.418Z,75.58
2023-05-20T10:50:07.829Z,75.83
2023-05-20T10:52:37.957Z,74.27
2023-05-20T10:55:06.603Z,75.22
2023-05-20T10:57:35.430Z,74.77
2023-05-20T11:00:05.692Z,75.75
2023-05-20T11:02:35.646Z,74.49
2023-05-20T11:05:04.342Z,76.14
2023-05-20T11:07:34.115Z,74.11
2023-05-20T11:10:02.259Z,74.14
2023-05-20T11:12:30.134Z,73.26
2023-05-20T11:14:58.154Z,73.83
2023-05-20T11:17:26.255Z,73.21
2023-05-20T11:19:55.422Z,72.34
2023-05-20T11:22:23.164Z,71.83
2023-05-20T11:24:51.207Z,70.69
2023-05-20T11:27:19.763Z,70.45
2023-05-20T11:29:51.132Z,71.68
2023-05-20T11:32:21.310Z,72.35
2023-05-20T11:34:52.505Z,72.72
2023-05-20T11:37:23.240Z,72.44
2023-05-20T11:40:07.640Z,74.55
2023-05-20T11:42:36.338Z,73.33
2023-05-20T11:45:04.498Z,73.85
2023-05-20T11:47:32.708Z,73.72
2023-05-20T11:50:00.824Z,72.92
2023-05-20T11:52:31.218Z,72.16
2023-05-20T11:54:59.005Z,73.77
2023-05-20T11:57:27.014Z,71.37
2023-05-20T11:59:54.792Z,70.82
2023-05-20T12:02:22.598Z,71.90
2023-05-20T12:04:50.731Z,70.42
2023-05-20T12:07:18.519Z,71.53
2023-05-20T12:09:47.692Z,71.48
2023-05-20T12:12:16.546Z,71.86
2023-05-20T12:14:44.322Z,71.22
2023-05-20T12:17:12.482Z,71.39
2023-05-20T12:19:41.892Z,70.72
2023-05-20T12:22:10.049Z,71.32
2023-05-20T12:24:37.808Z,69.70
2023-05-20T12:27:07.833Z,69.04
2023-05-20T12:29:35.646Z,70.44
2023-05-20T12:32:03.486Z,69.80
2023-05-20T12:34:33.131Z,69.13
2023-05-20T12:37:01.246Z,68.96
2023-05-20T12:39:29.036Z,67.65
2023-05-20T12:41:57.031Z,68.17
2023-05-20T12:44:26.270Z,66.96
2023-05-20T12:46:56.078Z,66.91
2023-05-20T12:49:24.200Z,66.53
2023-05-20T12:51:51.989Z,65.56
2023-05-20T12:54:21.076Z,66.33
2023-05-20T12:56:49.157Z,66.79
2023-05-20T12:59:16.928Z,66.29
2023-05-20T13:01:46.124Z,66.61
2023-05-20T13:04:14.263Z,65.80
2023-05-20T13:06:43.086Z,67.96
2023-05-20T13:09:10.927Z,67.85
2023-05-20T13:11:38.956Z,66.92
2023-05-20T13:14:06.713Z,67.98
2023-05-20T13:16:34.602Z,68.37
2023-05-20T13:19:04.294Z,68.86
2023-05-20T13:21:32.809Z,68.85
2023-05-20T13:24:01.095Z,69.52
2023-05-20T13:26:29.319Z,68.73
2023-05-20T13:28:57.104Z,69.38
2023-05-20T13:31:25.152Z,70.75
2023-05-20T13:33:55.192Z,70.56
2023-05-20T13:36:24.363Z,71.38
2023-05-20T13:38:52.310Z,71.35
2023-05-20T13:41:20.348Z,69.96
2023-05-20T13:43:48.160Z,69.59
2023-05-20T13:46:17.413Z,69.88
2023-05-20T13:48:45.484Z,69.68
2023-05-20T13:51:13.495Z,70.97
2023-05-20T13:53:42.671Z,71.29
2023-05-20T13:56:11.144Z,71.61
2023-05-20T13:58:39.072Z,70.54
2023-05-20T14:01:07.224Z,69.82
2023-05-20T14:03:37.379Z,70.60
2023-05-20T14:06:05.899Z,69.21
2023-05-20T14:08:33.737Z,68.63
2023-05-20T14:11:03.181Z,67.04
2023-05-20T14:13:31.014Z,67.08
2023-05-20T14:15:59.107Z,67.06
2023-05-20T14:18:27.220Z,66.94
2023-05-20T14:20:56.344Z,66.22
2023-05-20T14:23:24.193Z,67.16
2023-05-20T14:25:52.222Z,67.53
2023-05-20T14:28:21.365Z,66.43
2023-05-20T14:30:49.158Z,65.00
2023-05-20T14:33:17.161Z,64.74
2023-05-20T14:35:44.972Z,64.96
2023-05-20T14:38:12.789Z,63.82
2023-05-20T14:40:40.815Z,63.91
2023-05-20T14:43:08.636Z,62.68
2023-05-20T14:45:46.696Z,63.24
2023-05-20T14:48:14.859Z,63.12
2023-05-20T14:50:42.693Z,64.22
2023-05-20T14:53:10.566Z,62.67
2023-05-20T14:55:38.602Z,63.41
2023-05-20T14:58:06.446Z,63.06
2023-05-20T15:00:34.497Z,62.76
2023-05-20T15:03:04.348Z,62.69
2023-05-20T15:05:32.268Z,63.05
2023-05-20T15:08:00.125Z,62.67
2023-05-20T15:10:28.395Z,62.32
2023-05-20T15:12:56.241Z,63.01
2023-05-20T15:15:24.082Z,62.64
2023-05-20T15:17:52.218Z,62.97
2023-05-20T15:20:21.428Z,62.28
2023-05-20T15:22:49.482Z,63.59
2023-05-20T15:25:17.823Z,64.02
2023-05-20T15:27:45.685Z,61.60
2023-05-20T15:30:14.854Z,61.75
2023-05-20T15:32:43.537Z,62.33
2023-05-20T15:35:11.612Z,63.48
2023-05-20T15:37:40.747Z,62.40
2023-05-20T15:40:10.266Z,62.07
2023-05-20T15:42:38.041Z,62.22
2023-05-20T15:45:07.311Z,62.30
2023-05-20T15:47:35.402Z,62.68
2023-05-20T15:50:05.196Z,62.17
2023-05-20T15:52:33.334Z,61.91
2023-05-20T15:55:02.793Z,62.25
2023-05-20T15:57:31.138Z,61.95
2023-05-20T15:59:59.013Z,62.13
2023-05-20T16:02:33.396Z,63.08
2023-05-20T16:05:03.570Z,62.35
2023-05-20T16:07:31.816Z,62.62
2023-05-20T16:09:59.604Z,63.09
2023-05-20T16:12:28.957Z,63.42
2023-05-20T16:14:57.095Z,63.80
2023-05-20T16:17:24.937Z,64.79
2023-05-20T16:19:52.706Z,63.87
2023-05-20T16:22:20.752Z,64.62
2023-05-20T16:24:48.770Z,64.95
2023-05-20T16:27:16.564Z,65.19
2023-05-20T16:29:47.253Z,66.03
2023-05-20T16:32:15.035Z,65.76
2023-05-20T16:34:42.814Z,66.20
2023-05-20T16:37:10.948Z,66.67
2023-05-20T16:39:38.741Z,66.79
2023-05-20T16:42:08.948Z,66.86
2023-05-20T16:44:38.772Z,66.75
2023-05-20T16:47:08.800Z,66.75
2023-05-20T16:49:36.808Z,66.33
2023-05-20T16:52:05.334Z,67.36
2023-05-20T16:54:36.285Z,67.48
2023-05-20T16:57:04.590Z,68.12
2023-05-20T16:59:34.886Z,68.82
2023-05-20T17:02:02.727Z,68.93
2023-05-20T17:04:31.837Z,68.78
2023-05-20T17:07:01.686Z,69.14
2023-05-20T17:09:29.996Z,68.86
2023-05-20T17:11:58.207Z,68.47
2023-05-20T17:14:26.236Z,67.92
2023-05-20T17:16:54.079Z,68.38
2023-05-20T17:19:21.975Z,68.70
2023-05-20T17:21:51.541Z,69.18
2023-05-20T17:24:19.339Z,69.47
2023-05-20T17:26:47.505Z,69.80
2023-05-20T17:29:15.659Z,69.89
2023-05-20T17:31:44.693Z,70.07
2023-05-20T17:34:12.575Z,70.41
2023-05-20T17:36:40.841Z,70.54
2023-05-20T17:39:10.560Z,71.16
2023-05-20T17:41:38.349Z,71.00
2023-05-20T17:44:07.779Z,70.67
2023-05-20T17:46:35.766Z,71.08
2023-05-20T17:49:03.567Z,72.06
2023-05-20T17:51:31.857Z,72.51
2023-05-20T17:53:59.800Z,73.09
2023-05-20T17:56:29.024Z,73.09
2023-05-20T17:58:57.069Z,73.46
2023-05-20T18:01:24.884Z,73.37
2023-05-20T18:03:53.147Z,73.73
2023-05-20T18:06:21.490Z,74.97
2023-05-20T18:08:49.394Z,74.96
2023-05-20T18:11:17.203Z,75.19
2023-05-20T18:13:46.822Z,75.71
2023-05-20T18:16:14.766Z,75.70
2023-05-20T18:18:42.593Z,75.67
2023-05-20T18:21:10.703Z,76.47
2023-05-20T18:23:38.494Z,76.17
2023-05-20T18:26:07.120Z,76.17
2023-05-20T18:28:35.532Z,76.63
2023-05-20T18:31:04.714Z,77.05
2023-05-20T18:33:32.805Z,77.25
2023-05-20T18:36:01.054Z,77.90
2023-05-20T18:38:28.957Z,77.73
2023-05-20T18:40:56.846Z,78.35
2023-05-20T18:43:24.844Z,79.03
2023-05-20T18:45:53.929Z,79.41
2023-05-20T18:48:26.983Z,80.14
2023-05-20T18:50:55.757Z,80.40
2023-05-20T18:53:23.722Z,80.93
2023-05-20T18:55:52.041Z,81.56
2023-05-20T18:58:20.109Z,81.98
2023-05-20T19:00:47.914Z,82.30
2023-05-20T19:03:15.875Z,82.63
2023-05-20T19:05:45.339Z,83.24
2023-05-20T19:08:13.256Z,83.58
2023-05-20T19:10:41.605Z,84.28
2023-05-20T19:13:09.677Z,84.81
2023-05-20T19:15:37.737Z,85.53
2023-05-20T19:18:05.755Z,86.06
2023-05-20T19:20:34.378Z,86.82
2023-05-20T19:23:03.935Z,87.38
2023-05-20T19:25:31.759Z,87.84
2023-05-20T19:27:59.793Z,88.26
2023-05-20T19:30:27.867Z,89.40
2023-05-20T19:32:56.043Z,89.87
2023-05-20T19:35:26.137Z,90.28
2023-05-20T19:37:53.985Z,91.17
2023-05-20T19:40:23.193Z,91.79
2023-05-20T19:42:52.477Z,93.53
2023-05-20T19:45:21.753Z,94.83
2023-05-20T19:47:49.755Z,95.81
2023-05-20T19:50:17.792Z,97.05
2023-05-20T19:52:45.563Z,97.35
2023-05-20T19:55:13.477Z,98.41
2023-05-20T19:57:43.907Z,99.80
2023-05-20T20:00:12.687Z,100.00
2023-05-20T20:02:40.998Z,100.00
2023-05-20T20:05:09.947Z,100.00
2023-05-20T20:07:37.820Z,100.00
2023-05-20T20:10:06.304Z,100.00
2023-05-20T20:12:34.309Z,100.00
2023-05-20T20:15:04.325Z,100.00
2023-05-20T20:17:33.814Z,100.00
2023-05-20T20:20:02.046Z,100.00
2023-05-20T20:22:29.804Z,100.00
2023-05-20T20:24:57.556Z,100.00
2023-05-20T20:27:25.573Z,100.00
2023-05-20T20:29:53.820Z,100.00
2023-05-20T20:32:24.250Z,100.00
2023-05-20T20:34:52.391Z,100.00
2023-05-20T20:37:23.029Z,100.00
2023-05-20T20:39:51.021Z,100.00
2023-05-20T20:42:19.107Z,100.00
2023-05-20T20:44:48.312Z,100.00
2023-05-20T20:47:16.199Z,100.00
2023-05-20T20:49:45.744Z,100.00
2023-05-20T20:52:13.559Z,100.00
2023-05-20T20:54:43.322Z,100.00
2023-05-20T20:57:13.894Z,100.00
2023-05-20T20:59:48.157Z,100.00
2023-05-20T21:02:16.397Z,100.00
2023-05-20T21:04:47.375Z,100.00
2023-05-20T21:07:17.971Z,100.00
2023-05-20T21:09:46.410Z,100.00
2023-05-20T21:12:14.178Z,100.00
2023-05-20T21:14:44.208Z,100.00
2023-05-20T21:17:12.340Z,100.00
2023-05-20T21:19:40.122Z,100.00
2023-05-20T21:22:09.266Z,100.00
2023-05-20T21:24:37.313Z,100.00
2023-05-20T21:27:05.193Z,100.00
2023-05-20T21:29:33.943Z,100.00
2023-05-20T21:32:01.946Z,100.00
2023-05-20T21:34:29.998Z,100.00
2023-05-20T21:36:58.060Z,100.00
2023-05-20T21:39:27.426Z,100.00
2023-05-20T21:41:55.158Z,100.00
2023-05-20T21:44:22.929Z,100.00
2023-05-20T21:46:51.094Z,100.00
2023-05-20T21:49:18.973Z,100.00
2023-05-20T21:51:46.776Z,100.00
2023-05-20T21:54:14.826Z,100.00
2023-05-20T21:56:44.005Z,100.00
2023-05-20T21:59:11.765Z,100.00
2023-05-20T22:01:39.815Z,100.00
2023-05-20T22:04:07.952Z,100.00
2023-05-20T22:06:36.287Z,100.00
2023-05-20T22:09:05.880Z,100.00
2023-05-20T22:11:33.768Z,100.00
2023-05-20T22:14:03.192Z,100.00
2023-05-20T22:16:31.437Z,100.00
2023-05-20T22:18:59.253Z,100.00
2023-05-20T22:21:28.708Z,100.00
2023-05-20T22:23:56.951Z,100.00
2023-05-20T22:26:25.345Z,100.00
2023-05-20T22:28:53.618Z,100.00
2023-05-20T22:31:23.071Z,100.00
2023-05-20T22:33:50.862Z,100.00
2023-05-20T22:36:18.962Z,100.00
2023-05-20T22:38:46.962Z,100.00
2023-05-20T22:41:14.729Z,100.00
2023-05-20T22:43:42.508Z,100.00
2023-05-20T22:46:10.592Z,100.00
2023-05-20T22:48:39.782Z,100.00
2023-05-20T22:51:08.920Z,100.00
2023-05-20T22:53:36.975Z,100.00
2023-05-20T22:56:05.892Z,100.00
2023-05-20T22:58:35.739Z,100.00
2023-05-20T23:01:03.798Z,100.00
2023-05-20T23:03:31.619Z,100.00
2023-05-20T23:06:00.766Z,100.00
2023-05-20T23:08:29.074Z,100.00
2023-05-20T23:10:56.850Z,100.00
2023-05-20T23:13:24.961Z,100.00
2023-05-20T23:15:53.263Z,100.00
2023-05-20T23:18:21.158Z,100.00
2023-05-20T23:20:48.996Z,100.00
2023-05-20T23:23:22.816Z,100.00
2023-05-20T23:25:58.373Z,100.00
2023-05-20T23:28:26.510Z,100.00
2023-05-20T23:30:54.534Z,100.00
2023-05-20T23:33:25.327Z,100.00
2023-05-20T23:35:53.892Z,100.00
2023-05-20T23:38:23.605Z,100.00
2023-05-20T23:40:51.572Z,100.00
2023-05-20T23:43:19.615Z,100.00
2023-05-20T23:45:47.778Z,100.00
2023-05-20T23:48:17.887Z,100.00
2023-05-20T23:50:46.501Z,100.00
2023-05-20T23:53:14.281Z,100.00
2023-05-20T23:55:45.070Z,100.00
2023-05-20T23:58:13.143Z,100.00
